createdAt,value
2018-10-12T00:01:06.759Z,18.47
2018-10-12T00:03:34.265Z,18.45
2018-10-12T00:06:01.724Z,18.43
2018-10-12T00:08:29.179Z,18.43
2018-10-12T00:10:56.652Z,18.33
2018-10-12T00:13:24.997Z,18.24
2018-10-12T00:15:52.448Z,18.16
2018-10-12T00:18:19.940Z,18.10
2018-10-12T00:20:47.397Z,18.00
2018-10-12T00:23:14.922Z,17.87
2018-10-12T00:25:42.452Z,17.80
2018-10-12T00:28:09.892Z,17.76
2018-10-12T00:30:37.364Z,17.69
2018-10-12T00:33:04.774Z,17.68
2018-10-12T00:35:32.831Z,17.70
2018-10-12T00:38:00.329Z,17.71
2018-10-12T00:40:28.929Z,17.75
2018-10-12T00:42:56.497Z,17.75
2018-10-12T00:45:23.933Z,17.77
2018-10-12T00:47:51.363Z,17.79
2018-10-12T00:50:18.857Z,17.80
2018-10-12T00:52:46.320Z,17.78
2018-10-12T00:55:13.776Z,17.73
2018-10-12T00:57:41.217Z,17.60
2018-10-12T01:00:08.651Z,17.50
2018-10-12T01:02:36.057Z,17.48
2018-10-12T01:05:03.532Z,17.50
2018-10-12T01:07:31.002Z,17.50
2018-10-12T01:09:58.512Z,17.48
2018-10-12T01:12:25.953Z,17.41
2018-10-12T01:14:53.363Z,17.31
2018-10-12T01:17:20.816Z,17.18
2018-10-12T01:19:48.234Z,17.07
2018-10-12T01:22:15.721Z,16.97
2018-10-12T01:24:43.134Z,16.99
2018-10-12T01:27:10.599Z,17.04
2018-10-12T01:29:38.040Z,17.08
2018-10-12T01:32:05.459Z,17.09
2018-10-12T01:34:32.977Z,17.02
2018-10-12T01:37:00.455Z,17.04
2018-10-12T01:39:27.885Z,16.98
2018-10-12T01:41:55.331Z,16.78
2018-10-12T01:44:22.839Z,16.65
2018-10-12T01:46:50.395Z,16.58
2018-10-12T01:49:17.864Z,16.59
2018-10-12T01:51:45.300Z,16.68
2018-10-12T01:54:13.368Z,16.78
2018-10-12T01:56:40.889Z,16.80
2018-10-12T01:59:08.394Z,16.77
2018-10-12T02:01:35.835Z,16.70
2018-10-12T02:04:03.241Z,16.67
2018-10-12T02:06:30.666Z,16.70
2018-10-12T02:08:58.082Z,16.78
2018-10-12T02:11:25.495Z,16.81
2018-10-12T02:13:52.984Z,16.82
2018-10-12T02:16:20.447Z,16.78
2018-10-12T02:18:47.916Z,16.69
2018-10-12T02:21:15.325Z,16.73
2018-10-12T02:23:42.795Z,16.75
2018-10-12T02:26:10.264Z,16.73
2018-10-12T02:28:37.744Z,16.66
2018-10-12T02:31:05.236Z,16.64
2018-10-12T02:33:32.982Z,16.62
2018-10-12T02:36:00.425Z,16.64
2018-10-12T02:38:27.874Z,16.64
2018-10-12T02:40:55.343Z,16.56
2018-10-12T02:43:22.818Z,16.43
2018-10-12T02:45:50.314Z,16.36
2018-10-12T02:48:17.838Z,16.22
2018-10-12T02:50:45.316Z,16.11
2018-10-12T02:53:12.819Z,16.05
2018-10-12T02:55:40.243Z,15.92
2018-10-12T02:58:07.748Z,15.81
2018-10-12T03:00:35.173Z,15.75
2018-10-12T03:03:02.600Z,15.78
2018-10-12T03:05:29.988Z,15.82
2018-10-12T03:07:57.482Z,15.85
2018-10-12T03:10:24.980Z,15.94
2018-10-12T03:12:52.532Z,16.02
2018-10-12T03:15:19.975Z,15.99
2018-10-12T03:17:47.426Z,15.92
2018-10-12T03:20:15.516Z,15.82
2018-10-12T03:22:42.934Z,15.81
2018-10-12T03:25:10.439Z,15.83
2018-10-12T03:27:37.916Z,15.88
2018-10-12T03:30:05.336Z,15.90
2018-10-12T03:32:32.825Z,15.95
2018-10-12T03:35:00.255Z,16.01
2018-10-12T03:37:27.656Z,15.96
2018-10-12T03:39:55.141Z,15.95
2018-10-12T03:42:22.541Z,15.97
2018-10-12T03:44:50.039Z,15.95
2018-10-12T03:47:17.448Z,15.93
2018-10-12T03:49:44.906Z,15.83
2018-10-12T03:52:12.392Z,15.85
2018-10-12T03:54:39.801Z,15.85
2018-10-12T03:57:07.203Z,15.79
2018-10-12T03:59:34.673Z,15.73
2018-10-12T04:02:02.215Z,15.75
2018-10-12T04:04:29.656Z,15.82
2018-10-12T04:06:57.107Z,15.82
2018-10-12T04:09:24.545Z,15.76
2018-10-12T04:11:52.063Z,15.77
2018-10-12T04:14:19.468Z,15.81
2018-10-12T04:16:46.916Z,15.76
2018-10-12T04:19:14.333Z,15.72
2018-10-12T04:21:41.784Z,15.70
2018-10-12T04:24:09.190Z,15.68
2018-10-12T04:26:36.659Z,15.62
2018-10-12T04:29:04.114Z,15.64
2018-10-12T04:31:31.507Z,15.64
2018-10-12T04:33:59.639Z,15.65
2018-10-12T04:36:27.135Z,15.70
2018-10-12T04:38:54.561Z,15.75
2018-10-12T04:41:22.054Z,15.76
2018-10-12T04:43:49.458Z,15.74
2018-10-12T04:46:16.907Z,15.74
2018-10-12T04:48:44.382Z,15.73
2018-10-12T04:51:11.806Z,15.71
2018-10-12T04:53:39.269Z,15.67
2018-10-12T04:56:06.727Z,15.67
2018-10-12T04:58:34.188Z,15.62
2018-10-12T05:01:01.683Z,15.59
2018-10-12T05:03:29.120Z,15.61
2018-10-12T05:05:56.542Z,15.64
2018-10-12T05:08:24.039Z,15.56
2018-10-12T05:10:51.620Z,15.50
2018-10-12T05:13:19.156Z,15.49
2018-10-12T05:15:46.826Z,15.50
2018-10-12T05:18:14.245Z,15.50
2018-10-12T05:20:41.716Z,15.49
2018-10-12T05:23:09.163Z,15.39
2018-10-12T05:25:36.725Z,15.35
2018-10-12T05:28:04.202Z,15.37
2018-10-12T05:30:31.755Z,15.42
2018-10-12T05:32:59.303Z,15.37
2018-10-12T05:35:26.775Z,15.31
2018-10-12T05:37:54.458Z,15.28
2018-10-12T05:40:21.883Z,15.25
2018-10-12T05:42:49.360Z,15.26
2018-10-12T05:45:16.826Z,15.31
2018-10-12T05:47:44.235Z,15.37
2018-10-12T05:50:11.732Z,15.46
2018-10-12T05:52:39.196Z,15.47
2018-10-12T05:55:06.754Z,15.55
2018-10-12T05:57:34.292Z,15.61
2018-10-12T06:00:01.856Z,15.67
2018-10-12T06:02:29.334Z,15.73
2018-10-12T06:04:56.805Z,15.83
2018-10-12T06:07:24.289Z,15.97
2018-10-12T06:09:51.930Z,16.26
2018-10-12T06:12:19.610Z,16.65
2018-10-12T06:14:47.081Z,16.69
2018-10-12T06:17:14.563Z,16.72
2018-10-12T06:19:41.979Z,16.41
2018-10-12T06:22:09.440Z,16.21
2018-10-12T06:24:37.004Z,16.15
2018-10-12T06:27:04.508Z,16.17
2018-10-12T06:29:32.003Z,16.31
2018-10-12T06:31:59.686Z,16.45
2018-10-12T06:34:27.166Z,16.53
2018-10-12T06:36:54.590Z,16.52
2018-10-12T06:39:22.032Z,16.57
2018-10-12T06:41:49.648Z,16.76
2018-10-12T06:44:17.034Z,16.96
2018-10-12T06:46:45.259Z,17.10
2018-10-12T06:49:12.780Z,17.17
2018-10-12T06:51:40.236Z,17.32
2018-10-12T06:54:07.703Z,17.47
2018-10-12T06:56:35.246Z,17.72
2018-10-12T06:59:02.857Z,18.03
2018-10-12T07:01:30.320Z,18.20
2018-10-12T07:03:57.855Z,18.72
2018-10-12T07:06:25.307Z,19.42
2018-10-12T07:08:52.857Z,20.10
2018-10-12T07:11:20.283Z,20.61
2018-10-12T07:13:47.767Z,21.10
2018-10-12T07:16:15.166Z,21.68
2018-10-12T07:18:42.889Z,21.97
2018-10-12T07:21:10.579Z,21.64
2018-10-12T07:23:38.060Z,21.14
2018-10-12T07:26:05.593Z,20.72
2018-10-12T07:28:33.025Z,20.36
2018-10-12T07:31:00.560Z,20.04
2018-10-12T07:33:27.996Z,20.13
2018-10-12T07:35:55.544Z,20.64
2018-10-12T07:38:22.985Z,21.46
2018-10-12T07:40:50.693Z,22.27
2018-10-12T07:43:18.193Z,23.40
2018-10-12T07:45:45.665Z,24.43
2018-10-12T07:48:12.777Z,24.69
2018-10-12T07:50:40.188Z,24.85
2018-10-12T07:53:07.788Z,25.56
2018-10-12T07:55:35.244Z,25.57
2018-10-12T07:58:02.818Z,25.85
2018-10-12T08:00:30.248Z,25.50
2018-10-12T08:02:57.699Z,24.77
2018-10-12T08:05:25.153Z,24.72
2018-10-12T08:07:52.607Z,25.10
2018-10-12T08:10:20.095Z,25.63
2018-10-12T08:12:47.588Z,25.70
2018-10-12T08:15:15.011Z,26.02
2018-10-12T08:17:42.571Z,26.38
2018-10-12T08:20:09.596Z,26.56
2018-10-12T08:22:37.199Z,27.12
2018-10-12T08:25:04.324Z,27.44
2018-10-12T08:27:31.357Z,27.48
2018-10-12T08:29:58.871Z,27.25
2018-10-12T08:32:25.844Z,26.70
2018-10-12T08:34:52.882Z,26.57
2018-10-12T08:37:19.832Z,26.81
2018-10-12T08:39:46.810Z,26.63
2018-10-12T08:42:14.266Z,27.54
2018-10-12T08:44:41.772Z,28.04
2018-10-12T08:47:09.299Z,28.33
2018-10-12T08:49:36.341Z,28.58
2018-10-12T08:52:03.365Z,28.59
2018-10-12T08:54:30.787Z,28.50
2018-10-12T08:56:57.798Z,28.25
2018-10-12T09:02:23.483Z,29.00
2018-10-12T09:04:50.980Z,29.58
2018-10-12T09:07:18.399Z,29.85
2018-10-12T09:09:46.142Z,29.17
2018-10-12T09:12:13.541Z,28.54
2018-10-12T09:14:40.997Z,27.91
2018-10-12T09:17:08.831Z,27.87
2018-10-12T09:19:36.900Z,28.28
2018-10-12T09:22:04.502Z,28.24
2018-10-12T09:24:32.447Z,28.66
2018-10-12T09:26:59.576Z,29.02
2018-10-12T09:29:26.546Z,28.76
2018-10-12T09:31:53.561Z,28.19
2018-10-12T09:34:20.786Z,28.21
2018-10-12T09:36:47.834Z,28.19
2018-10-12T09:39:16.250Z,28.49
2018-10-12T09:41:43.415Z,28.07
2018-10-12T09:44:10.496Z,28.00
2018-10-12T09:46:38.098Z,27.94
2018-10-12T09:49:05.696Z,27.33
2018-10-12T09:51:33.327Z,26.93
2018-10-12T09:54:00.922Z,26.48
2018-10-12T09:56:28.465Z,26.22
2018-10-12T09:58:55.986Z,25.84
2018-10-12T10:04:16.354Z,25.53
2018-10-12T10:06:44.091Z,25.74
2018-10-12T10:09:12.600Z,25.79
2018-10-12T10:11:40.165Z,25.58
2018-10-12T10:14:07.752Z,25.57
2018-10-12T10:16:35.241Z,25.72
2018-10-12T10:19:02.744Z,25.77
2018-10-12T10:21:30.286Z,25.80
2018-10-12T10:23:57.885Z,25.83
2018-10-12T10:26:25.470Z,26.14
2018-10-12T10:28:53.051Z,26.15
2018-10-12T10:31:21.429Z,25.77
2018-10-12T10:33:48.887Z,25.80
2018-10-12T10:36:16.307Z,25.89
2018-10-12T10:38:43.879Z,25.82
2018-10-12T10:41:11.311Z,26.08
2018-10-12T10:43:38.788Z,25.92
2018-10-12T10:46:06.425Z,25.82
2018-10-12T10:48:33.987Z,26.14
2018-10-12T10:51:01.457Z,26.03
2018-10-12T10:53:28.913Z,26.17
2018-10-12T10:55:56.357Z,26.12
2018-10-12T10:58:23.819Z,26.32
2018-10-12T11:00:51.294Z,26.34
2018-10-12T11:03:19.236Z,26.43
2018-10-12T11:05:46.697Z,26.55
2018-10-12T11:08:14.172Z,26.53
2018-10-12T11:10:41.674Z,26.34
2018-10-12T11:13:09.147Z,26.51
2018-10-12T11:15:36.561Z,26.83
2018-10-12T11:18:04.603Z,27.40
2018-10-12T11:20:32.936Z,27.56
2018-10-12T11:23:00.404Z,27.56
2018-10-12T11:25:27.900Z,27.60
2018-10-12T11:27:55.471Z,27.77
2018-10-12T11:30:23.026Z,28.15
2018-10-12T11:32:50.557Z,28.00
2018-10-12T11:35:18.693Z,28.14
2018-10-12T11:37:46.095Z,28.19
2018-10-12T11:40:13.701Z,28.25
2018-10-12T11:42:41.163Z,28.76
2018-10-12T11:45:08.778Z,28.94
2018-10-12T11:47:36.267Z,28.50
2018-10-12T11:50:03.908Z,28.43
2018-10-12T11:52:31.329Z,28.55
2018-10-12T11:54:58.779Z,28.73
2018-10-12T11:57:31.095Z,28.67
2018-10-12T11:59:58.551Z,28.68
2018-10-12T12:02:26.069Z,28.54
2018-10-12T12:04:53.596Z,28.23
2018-10-12T12:07:22.124Z,28.24
2018-10-12T12:09:49.580Z,28.37
2018-10-12T12:12:17.021Z,28.77
2018-10-12T12:14:45.056Z,28.98
2018-10-12T12:17:12.698Z,28.83
2018-10-12T12:19:40.235Z,28.63
2018-10-12T12:22:07.762Z,28.62
2018-10-12T12:24:35.215Z,28.83
2018-10-12T12:27:02.960Z,28.43
2018-10-12T12:29:30.478Z,28.55
2018-10-12T12:31:57.920Z,28.60
2018-10-12T12:34:25.419Z,28.45
2018-10-12T12:36:53.061Z,28.09
2018-10-12T12:39:21.735Z,27.81
2018-10-12T12:41:49.412Z,27.98
2018-10-12T12:44:17.707Z,28.16
2018-10-12T12:46:45.176Z,28.14
2018-10-12T12:49:13.012Z,27.96
2018-10-12T12:51:40.058Z,28.14
2018-10-12T12:54:08.039Z,28.35
2018-10-12T12:56:35.502Z,28.76
2018-10-12T12:59:03.344Z,28.74
2018-10-12T13:01:30.470Z,28.50
2018-10-12T13:03:57.938Z,28.42
2018-10-12T13:06:25.857Z,28.24
2018-10-12T13:08:53.244Z,28.54
2018-10-12T13:11:20.763Z,28.65
2018-10-12T13:13:48.291Z,28.79
2018-10-12T13:16:15.866Z,29.08
2018-10-12T13:18:43.357Z,29.48
2018-10-12T13:21:11.539Z,29.43
2018-10-12T13:23:39.056Z,29.45
2018-10-12T13:26:06.706Z,29.30
2018-10-12T13:28:33.970Z,29.47
2018-10-12T13:31:01.440Z,29.35
2018-10-12T13:33:29.115Z,29.30
2018-10-12T13:35:56.788Z,29.63
2018-10-12T13:38:24.464Z,29.93
2018-10-12T13:40:51.892Z,30.26
2018-10-12T13:43:19.358Z,30.52
2018-10-12T13:45:46.838Z,30.51
2018-10-12T13:48:14.303Z,30.30
2018-10-12T13:50:41.745Z,30.28
2018-10-12T13:53:09.234Z,30.06
2018-10-12T13:55:36.683Z,30.39
2018-10-12T13:58:04.158Z,30.91
2018-10-12T14:00:31.615Z,30.84
2018-10-12T14:02:59.142Z,30.84
2018-10-12T14:05:26.590Z,31.49
2018-10-12T14:07:54.096Z,31.79
2018-10-12T14:10:21.580Z,32.54
2018-10-12T14:12:49.039Z,33.44
2018-10-12T14:15:16.500Z,33.97
2018-10-12T14:17:44.000Z,34.55
2018-10-12T14:20:11.616Z,34.03
2018-10-12T14:22:39.098Z,33.51
2018-10-12T14:25:06.577Z,32.52
2018-10-12T14:27:34.150Z,33.12
2018-10-12T14:30:01.588Z,33.45
2018-10-12T14:32:29.117Z,33.78
2018-10-12T14:34:56.613Z,35.78
2018-10-12T14:37:23.662Z,37.90
2018-10-12T14:39:50.663Z,37.15
2018-10-12T14:42:17.718Z,36.71
2018-10-12T14:44:44.707Z,36.56
2018-10-12T14:47:11.649Z,37.43
2018-10-12T14:49:38.632Z,37.91
2018-10-12T14:52:05.675Z,38.02
2018-10-12T14:54:32.726Z,38.53
2018-10-12T14:56:59.774Z,38.49
2018-10-12T14:59:27.538Z,38.34
2018-10-12T15:01:54.556Z,38.56
2018-10-12T15:04:21.636Z,38.87
2018-10-12T15:06:48.623Z,38.47
2018-10-12T15:09:15.783Z,38.68
2018-10-12T15:11:42.799Z,38.37
2018-10-12T15:14:09.911Z,37.98
2018-10-12T15:16:37.085Z,37.78
2018-10-12T15:19:04.135Z,37.47
2018-10-12T15:21:31.170Z,37.71
2018-10-12T15:23:58.137Z,38.40
2018-10-12T15:26:25.101Z,38.43
2018-10-12T15:28:52.143Z,39.01
2018-10-12T15:31:19.263Z,39.20
2018-10-12T15:33:46.235Z,36.98
2018-10-12T15:36:13.319Z,33.66
2018-10-12T15:38:40.410Z,33.17
2018-10-12T15:41:07.446Z,34.73
2018-10-12T15:43:34.623Z,36.36
2018-10-12T15:46:02.284Z,37.23
2018-10-12T15:48:29.797Z,37.88
2018-10-12T15:50:57.288Z,38.17
2018-10-12T15:53:24.809Z,38.66
2018-10-12T15:55:52.371Z,39.05
2018-10-12T15:58:19.975Z,39.34
2018-10-12T16:00:47.584Z,39.38
2018-10-12T16:03:15.173Z,39.35
2018-10-12T16:05:42.799Z,39.16
2018-10-12T16:08:10.261Z,38.41
2018-10-12T16:10:37.741Z,37.59
2018-10-12T16:13:05.231Z,36.96
2018-10-12T16:15:32.797Z,36.23
2018-10-12T16:18:00.271Z,34.85
2018-10-12T16:20:27.713Z,32.96
2018-10-12T16:22:55.255Z,29.89
2018-10-12T16:28:21.521Z,26.34
2018-10-12T16:30:49.086Z,25.32
2018-10-12T16:33:16.572Z,24.64
2018-10-12T16:35:44.062Z,24.17
2018-10-12T16:38:12.342Z,23.91
2018-10-12T16:40:40.009Z,23.67
2018-10-12T16:43:07.560Z,23.53
2018-10-12T16:45:35.255Z,23.31
2018-10-12T16:48:02.749Z,23.02
2018-10-12T16:50:30.297Z,22.95
2018-10-12T16:52:57.930Z,22.87
2018-10-12T16:55:25.435Z,22.75
2018-10-12T16:57:53.113Z,22.74
2018-10-12T17:00:20.569Z,22.56
2018-10-12T17:02:48.235Z,22.43
2018-10-12T17:05:15.704Z,22.32
2018-10-12T17:07:43.163Z,22.26
2018-10-12T17:10:11.131Z,22.20
2018-10-12T17:12:38.610Z,22.19
2018-10-12T17:15:06.173Z,22.11
2018-10-12T17:17:33.726Z,22.00
2018-10-12T17:20:01.286Z,21.87
2018-10-12T17:22:28.723Z,21.70
2018-10-12T17:24:56.201Z,21.63
2018-10-12T17:27:23.674Z,21.56
2018-10-12T17:29:51.328Z,21.50
2018-10-12T17:32:19.678Z,21.59
2018-10-12T17:34:47.139Z,21.57
2018-10-12T17:37:14.687Z,21.46
2018-10-12T17:39:42.160Z,21.33
2018-10-12T17:42:09.668Z,21.21
2018-10-12T17:44:37.306Z,21.10
2018-10-12T17:47:04.768Z,21.04
2018-10-12T17:49:32.645Z,20.97
2018-10-12T17:52:00.131Z,20.94
2018-10-12T17:54:28.351Z,20.89
2018-10-12T17:56:55.793Z,20.79
2018-10-12T17:59:23.266Z,20.72
2018-10-12T18:01:50.765Z,20.72
2018-10-12T18:04:19.422Z,20.71
2018-10-12T18:06:46.881Z,20.73
2018-10-12T18:09:14.350Z,20.70
2018-10-12T18:11:41.876Z,20.72
2018-10-12T18:14:09.417Z,20.74
2018-10-12T18:16:36.968Z,20.78
2018-10-12T18:19:05.207Z,20.80
2018-10-12T18:21:33.017Z,20.86
2018-10-12T18:24:00.769Z,20.86
2018-10-12T18:26:28.374Z,20.91
2018-10-12T18:28:55.856Z,20.94
2018-10-12T18:31:23.331Z,20.92
2018-10-12T18:33:50.867Z,20.92
2018-10-12T18:36:18.361Z,20.87
2018-10-12T18:38:45.843Z,20.81
2018-10-12T18:41:13.394Z,20.81
2018-10-12T18:43:40.977Z,20.77
2018-10-12T18:46:08.422Z,20.71
2018-10-12T18:48:35.937Z,20.61
2018-10-12T18:51:04.992Z,20.57
2018-10-12T18:53:32.723Z,20.61
2018-10-12T18:56:00.297Z,20.64
2018-10-12T18:58:27.775Z,20.63
2018-10-12T19:00:55.366Z,20.67
2018-10-12T19:03:22.827Z,20.67
2018-10-12T19:05:50.312Z,20.67
2018-10-12T19:08:17.840Z,20.69
2018-10-12T19:10:45.679Z,20.70
2018-10-12T19:13:13.271Z,20.73
2018-10-12T19:15:40.720Z,20.71
2018-10-12T19:18:08.932Z,20.73
2018-10-12T19:20:36.448Z,20.76
2018-10-12T19:23:04.920Z,20.81
2018-10-12T19:25:32.365Z,20.83
2018-10-12T19:27:59.792Z,20.84
2018-10-12T19:33:31.019Z,20.71
2018-10-12T19:35:59.477Z,20.57
2018-10-12T19:41:30.408Z,20.31
2018-10-12T19:43:57.932Z,20.28
2018-10-12T19:46:25.366Z,20.25
2018-10-12T19:48:52.969Z,20.23
2018-10-12T19:51:20.414Z,20.26
2018-10-12T19:53:47.898Z,20.29
2018-10-12T19:56:15.422Z,20.31
2018-10-12T19:58:42.999Z,20.29
2018-10-12T20:01:11.551Z,20.21
2018-10-12T20:03:39.013Z,20.20
2018-10-12T20:06:06.580Z,20.25
2018-10-12T20:08:34.120Z,20.25
2018-10-12T20:11:01.580Z,20.21
2018-10-12T20:13:29.015Z,20.12
2018-10-12T20:15:56.533Z,20.10
2018-10-12T20:18:24.126Z,20.11
2018-10-12T20:20:51.691Z,20.15
2018-10-12T20:23:19.144Z,20.17
2018-10-12T20:25:46.672Z,20.10
2018-10-12T20:28:14.113Z,20.11
2018-10-12T20:30:41.618Z,20.16
2018-10-12T20:33:09.103Z,20.22
2018-10-12T20:35:36.658Z,20.24
2018-10-12T20:38:04.161Z,20.25
2018-10-12T20:40:32.205Z,20.15
2018-10-12T20:42:59.727Z,20.04
2018-10-12T20:45:27.176Z,20.06
2018-10-12T20:47:54.659Z,20.07
2018-10-12T20:50:22.156Z,20.03
2018-10-12T20:52:50.289Z,19.99
2018-10-12T20:55:17.742Z,20.00
2018-10-12T20:57:45.308Z,20.04
2018-10-12T21:00:12.790Z,20.08
2018-10-12T21:02:40.287Z,20.06
2018-10-12T21:05:07.790Z,20.08
2018-10-12T21:07:35.231Z,20.02
2018-10-12T21:10:02.932Z,19.92
2018-10-12T21:12:30.334Z,19.93
2018-10-12T21:14:57.774Z,19.94
2018-10-12T21:17:25.163Z,19.95
2018-10-12T21:19:52.716Z,19.96
2018-10-12T21:22:20.236Z,19.94
2018-10-12T21:24:47.685Z,19.86
2018-10-12T21:27:15.212Z,19.88
2018-10-12T21:29:42.912Z,19.88
2018-10-12T21:32:10.339Z,19.76
2018-10-12T21:34:37.760Z,19.69
2018-10-12T21:37:05.395Z,19.68
2018-10-12T21:39:32.853Z,19.71
2018-10-12T21:42:00.307Z,19.73
2018-10-12T21:44:27.741Z,19.70
2018-10-12T21:46:56.053Z,19.61
2018-10-12T21:49:23.499Z,19.57
2018-10-12T21:51:51.013Z,19.60
2018-10-12T21:54:18.462Z,19.64
2018-10-12T21:56:45.912Z,19.63
2018-10-12T21:59:13.429Z,19.57
2018-10-12T22:01:41.737Z,19.54
2018-10-12T22:04:09.259Z,19.53
2018-10-12T22:06:36.697Z,19.57
2018-10-12T22:09:04.255Z,19.49
2018-10-12T22:11:31.726Z,19.39
2018-10-12T22:13:59.272Z,19.35
2018-10-12T22:16:26.651Z,19.35
2018-10-12T22:18:54.133Z,19.22
2018-10-12T22:21:21.535Z,18.97
2018-10-12T22:23:49.099Z,18.84
2018-10-12T22:26:16.668Z,18.84
2018-10-12T22:28:44.156Z,18.87
2018-10-12T22:31:12.630Z,18.92
2018-10-12T22:33:41.383Z,18.86
2018-10-12T22:36:08.886Z,18.81
2018-10-12T22:38:36.400Z,18.78
2018-10-12T22:41:03.949Z,18.75
2018-10-12T22:43:31.465Z,18.65
2018-10-12T22:45:58.893Z,18.50
2018-10-12T22:48:26.352Z,18.43
2018-10-12T22:50:53.794Z,18.38
2018-10-12T22:53:21.594Z,18.42
2018-10-12T22:55:49.225Z,18.49
2018-10-12T22:58:16.708Z,18.50
2018-10-12T23:00:44.136Z,18.50
2018-10-12T23:03:11.622Z,18.49
2018-10-12T23:05:39.079Z,18.54
2018-10-12T23:08:06.675Z,18.58
2018-10-12T23:10:34.137Z,18.48
2018-10-12T23:13:01.739Z,18.41
2018-10-12T23:15:29.134Z,18.42
2018-10-12T23:17:56.583Z,18.44
2018-10-12T23:20:24.028Z,18.45
2018-10-12T23:22:51.457Z,18.45
2018-10-12T23:25:19.996Z,18.41
2018-10-12T23:27:47.412Z,18.37
2018-10-12T23:30:14.882Z,18.37
2018-10-12T23:32:42.293Z,18.36
2018-10-12T23:35:09.762Z,18.34
2018-10-12T23:37:37.205Z,18.24
2018-10-12T23:40:04.605Z,18.13
2018-10-12T23:42:32.101Z,18.13
2018-10-12T23:44:59.498Z,18.14
2018-10-12T23:47:26.999Z,18.11
2018-10-12T23:49:54.414Z,18.10
2018-10-12T23:52:21.845Z,18.07
2018-10-12T23:57:22.144Z,18.07
2018-10-12T23:59:49.628Z,18.08
